sensor_id;sensor_type;location;lat;lon;timestamp;P1;durP1;ratioP1;P2;durP2;ratioP2
79570;SDS011;69034;49.444;7.758;2024-02-14T00:02:28;5.85;;;1.15;;
79570;SDS011;69034;49.444;7.758;2024-02-14T00:06:29;4.30;;;0.80;;
79570;SDS011;69034;49.444;7.758;2024-02-14T00:10:35;2.28;;;1.00;;
79570;SDS011;69034;49.444;7.758;2024-02-14T00:14:35;5.55;;;1.25;;
79570;SDS011;69034;49.444;7.758;2024-02-14T00:18:36;2.65;;;1.25;;
79570;SDS011;69034;49.444;7.758;2024-02-14T00:22:37;2.28;;;1.10;;
79570;SDS011;69034;49.444;7.758;2024-02-14T00:26:39;3.22;;;1.27;;
79570;SDS011;69034;49.444;7.758;2024-02-14T00:30:39;2.00;;;0.68;;
79570;SDS011;69034;49.444;7.758;2024-02-14T00:34:40;2.70;;;0.90;;
79570;SDS011;69034;49.444;7.758;2024-02-14T00:38:41;1.77;;;0.88;;
79570;SDS011;69034;49.444;7.758;2024-02-14T00:42:41;3.45;;;1.40;;
79570;SDS011;69034;49.444;7.758;2024-02-14T00:46:43;2.95;;;0.98;;
79570;SDS011;69034;49.444;7.758;2024-02-14T00:50:44;2.17;;;0.88;;
79570;SDS011;69034;49.444;7.758;2024-02-14T00:54:45;3.10;;;1.20;;
79570;SDS011;69034;49.444;7.758;2024-02-14T00:58:46;3.22;;;1.15;;
79570;SDS011;69034;49.444;7.758;2024-02-14T01:02:46;2.63;;;0.85;;
79570;SDS011;69034;49.444;7.758;2024-02-14T01:06:47;3.55;;;1.10;;
79570;SDS011;69034;49.444;7.758;2024-02-14T01:10:49;4.05;;;1.05;;
79570;SDS011;69034;49.444;7.758;2024-02-14T01:14:51;4.43;;;1.38;;
79570;SDS011;69034;49.444;7.758;2024-02-14T01:18:52;2.47;;;1.27;;
79570;SDS011;69034;49.444;7.758;2024-02-14T01:22:52;2.78;;;1.05;;
79570;SDS011;69034;49.444;7.758;2024-02-14T01:26:53;5.35;;;1.00;;
79570;SDS011;69034;49.444;7.758;2024-02-14T01:30:55;2.58;;;0.65;;
79570;SDS011;69034;49.444;7.758;2024-02-14T01:34:56;7.28;;;0.88;;
79570;SDS011;69034;49.444;7.758;2024-02-14T01:38:57;2.38;;;1.05;;
79570;SDS011;69034;49.444;7.758;2024-02-14T01:42:58;3.28;;;1.33;;
79570;SDS011;69034;49.444;7.758;2024-02-14T01:46:59;1.77;;;0.70;;
79570;SDS011;69034;49.444;7.758;2024-02-14T01:51:00;3.05;;;1.10;;
79570;SDS011;69034;49.444;7.758;2024-02-14T01:55:02;3.00;;;0.93;;
79570;SDS011;69034;49.444;7.758;2024-02-14T01:59:05;2.40;;;0.93;;
79570;SDS011;69034;49.444;7.758;2024-02-14T02:03:07;1.98;;;0.93;;
79570;SDS011;69034;49.444;7.758;2024-02-14T02:07:07;2.22;;;0.98;;
79570;SDS011;69034;49.444;7.758;2024-02-14T02:11:08;3.85;;;1.27;;
79570;SDS011;69034;49.444;7.758;2024-02-14T02:15:09;2.65;;;0.95;;
79570;SDS011;69034;49.444;7.758;2024-02-14T02:19:16;2.78;;;1.40;;
79570;SDS011;69034;49.444;7.758;2024-02-14T02:23:17;5.88;;;1.05;;
79570;SDS011;69034;49.444;7.758;2024-02-14T02:27:17;2.67;;;1.17;;
79570;SDS011;69034;49.444;7.758;2024-02-14T02:31:19;3.03;;;1.50;;
79570;SDS011;69034;49.444;7.758;2024-02-14T02:35:20;3.83;;;1.13;;
79570;SDS011;69034;49.444;7.758;2024-02-14T02:39:21;8.52;;;0.95;;
79570;SDS011;69034;49.444;7.758;2024-02-14T02:43:21;3.00;;;1.38;;
79570;SDS011;69034;49.444;7.758;2024-02-14T02:47:22;8.27;;;1.83;;
79570;SDS011;69034;49.444;7.758;2024-02-14T02:51:22;4.53;;;1.05;;
79570;SDS011;69034;49.444;7.758;2024-02-14T02:55:23;2.17;;;1.10;;
79570;SDS011;69034;49.444;7.758;2024-02-14T02:59:24;3.63;;;1.30;;
79570;SDS011;69034;49.444;7.758;2024-02-14T03:03:24;2.88;;;1.33;;
79570;SDS011;69034;49.444;7.758;2024-02-14T03:07:27;3.85;;;1.38;;
79570;SDS011;69034;49.444;7.758;2024-02-14T03:11:28;5.22;;;1.58;;
79570;SDS011;69034;49.444;7.758;2024-02-14T03:15:29;7.00;;;1.13;;
79570;SDS011;69034;49.444;7.758;2024-02-14T03:19:30;2.42;;;0.85;;
79570;SDS011;69034;49.444;7.758;2024-02-14T03:23:30;5.22;;;1.52;;
79570;SDS011;69034;49.444;7.758;2024-02-14T03:27:31;12.05;;;1.30;;
79570;SDS011;69034;49.444;7.758;2024-02-14T03:31:32;1.92;;;0.95;;
79570;SDS011;69034;49.444;7.758;2024-02-14T03:35:33;8.13;;;2.88;;
79570;SDS011;69034;49.444;7.758;2024-02-14T03:39:33;4.03;;;1.45;;
79570;SDS011;69034;49.444;7.758;2024-02-14T03:43:34;4.15;;;1.17;;
79570;SDS011;69034;49.444;7.758;2024-02-14T03:47:35;1.67;;;0.80;;
79570;SDS011;69034;49.444;7.758;2024-02-14T03:51:39;2.17;;;0.70;;
79570;SDS011;69034;49.444;7.758;2024-02-14T03:55:40;2.75;;;0.85;;
79570;SDS011;69034;49.444;7.758;2024-02-14T03:59:41;4.43;;;1.48;;
79570;SDS011;69034;49.444;7.758;2024-02-14T04:03:42;2.30;;;0.85;;
79570;SDS011;69034;49.444;7.758;2024-02-14T04:07:42;2.30;;;0.95;;
79570;SDS011;69034;49.444;7.758;2024-02-14T04:11:47;2.67;;;0.70;;
79570;SDS011;69034;49.444;7.758;2024-02-14T04:15:49;3.33;;;1.02;;
79570;SDS011;69034;49.444;7.758;2024-02-14T04:19:50;3.83;;;1.27;;
79570;SDS011;69034;49.444;7.758;2024-02-14T04:23:50;3.42;;;1.25;;
79570;SDS011;69034;49.444;7.758;2024-02-14T04:27:51;5.03;;;1.15;;
79570;SDS011;69034;49.444;7.758;2024-02-14T04:31:51;3.15;;;1.45;;
79570;SDS011;69034;49.444;7.758;2024-02-14T04:35:52;9.23;;;1.00;;
79570;SDS011;69034;49.444;7.758;2024-02-14T04:39:54;1.13;;;0.60;;
79570;SDS011;69034;49.444;7.758;2024-02-14T04:43:54;2.20;;;1.02;;
79570;SDS011;69034;49.444;7.758;2024-02-14T04:47:55;5.07;;;1.15;;
79570;SDS011;69034;49.444;7.758;2024-02-14T04:51:56;2.55;;;0.90;;
79570;SDS011;69034;49.444;7.758;2024-02-14T04:55:57;1.88;;;1.00;;
79570;SDS011;69034;49.444;7.758;2024-02-14T04:59:58;2.53;;;1.23;;
79570;SDS011;69034;49.444;7.758;2024-02-14T05:03:58;7.32;;;1.45;;
79570;SDS011;69034;49.444;7.758;2024-02-14T05:07:59;3.17;;;0.98;;
79570;SDS011;69034;49.444;7.758;2024-02-14T05:12:00;2.83;;;1.30;;
79570;SDS011;69034;49.444;7.758;2024-02-14T05:16:04;2.50;;;1.00;;
79570;SDS011;69034;49.444;7.758;2024-02-14T05:20:05;3.13;;;1.20;;
79570;SDS011;69034;49.444;7.758;2024-02-14T05:24:08;2.65;;;0.90;;
79570;SDS011;69034;49.444;7.758;2024-02-14T05:28:09;3.20;;;1.05;;
79570;SDS011;69034;49.444;7.758;2024-02-14T05:32:14;2.38;;;0.90;;
79570;SDS011;69034;49.444;7.758;2024-02-14T05:36:15;2.55;;;0.77;;
79570;SDS011;69034;49.444;7.758;2024-02-14T05:40:16;2.72;;;0.90;;
79570;SDS011;69034;49.444;7.758;2024-02-14T05:44:16;5.13;;;1.10;;
79570;SDS011;69034;49.444;7.758;2024-02-14T05:48:17;4.05;;;1.05;;
79570;SDS011;69034;49.444;7.758;2024-02-14T05:52:19;2.78;;;0.70;;
79570;SDS011;69034;49.444;7.758;2024-02-14T05:56:19;5.82;;;1.40;;
79570;SDS011;69034;49.444;7.758;2024-02-14T06:00:20;4.25;;;0.80;;
79570;SDS011;69034;49.444;7.758;2024-02-14T06:04:21;2.47;;;1.00;;
79570;SDS011;69034;49.444;7.758;2024-02-14T06:08:22;3.30;;;1.17;;
79570;SDS011;69034;49.444;7.758;2024-02-14T06:12:23;2.78;;;1.13;;
79570;SDS011;69034;49.444;7.758;2024-02-14T06:16:24;3.30;;;1.20;;
79570;SDS011;69034;49.444;7.758;2024-02-14T06:20:25;2.10;;;0.80;;
79570;SDS011;69034;49.444;7.758;2024-02-14T06:24:26;2.95;;;1.02;;
79570;SDS011;69034;49.444;7.758;2024-02-14T06:28:26;1.13;;;0.70;;
79570;SDS011;69034;49.444;7.758;2024-02-14T06:32:27;2.72;;;0.80;;
79570;SDS011;69034;49.444;7.758;2024-02-14T06:36:28;3.40;;;1.15;;
79570;SDS011;69034;49.444;7.758;2024-02-14T06:40:29;5.82;;;1.50;;
79570;SDS011;69034;49.444;7.758;2024-02-14T06:44:29;3.90;;;1.15;;
79570;SDS011;69034;49.444;7.758;2024-02-14T06:48:30;1.80;;;0.80;;
79570;SDS011;69034;49.444;7.758;2024-02-14T06:52:30;8.20;;;1.60;;
79570;SDS011;69034;49.444;7.758;2024-02-14T06:56:31;2.55;;;1.02;;
79570;SDS011;69034;49.444;7.758;2024-02-14T07:00:32;2.28;;;1.20;;
79570;SDS011;69034;49.444;7.758;2024-02-14T07:04:33;3.35;;;1.33;;
79570;SDS011;69034;49.444;7.758;2024-02-14T07:08:34;3.75;;;1.20;;
79570;SDS011;69034;49.444;7.758;2024-02-14T07:12:34;6.28;;;1.20;;
79570;SDS011;69034;49.444;7.758;2024-02-14T07:16:36;3.60;;;1.60;;
79570;SDS011;69034;49.444;7.758;2024-02-14T07:20:37;2.55;;;1.10;;
79570;SDS011;69034;49.444;7.758;2024-02-14T07:24:37;2.63;;;1.10;;
79570;SDS011;69034;49.444;7.758;2024-02-14T07:28:38;3.40;;;0.90;;
79570;SDS011;69034;49.444;7.758;2024-02-14T07:32:39;3.45;;;1.08;;
79570;SDS011;69034;49.444;7.758;2024-02-14T07:36:39;5.80;;;1.85;;
79570;SDS011;69034;49.444;7.758;2024-02-14T07:40:45;3.50;;;1.48;;
79570;SDS011;69034;49.444;7.758;2024-02-14T07:44:46;3.55;;;1.15;;
79570;SDS011;69034;49.444;7.758;2024-02-14T07:48:46;5.40;;;1.85;;
79570;SDS011;69034;49.444;7.758;2024-02-14T07:52:48;6.45;;;1.40;;
79570;SDS011;69034;49.444;7.758;2024-02-14T07:56:49;14.40;;;1.60;;
79570;SDS011;69034;49.444;7.758;2024-02-14T08:00:49;5.40;;;1.48;;
79570;SDS011;69034;49.444;7.758;2024-02-14T08:04:50;2.65;;;1.10;;
79570;SDS011;69034;49.444;7.758;2024-02-14T08:08:51;4.30;;;1.67;;
79570;SDS011;69034;49.444;7.758;2024-02-14T08:12:57;5.63;;;1.02;;
79570;SDS011;69034;49.444;7.758;2024-02-14T08:16:58;3.72;;;1.45;;
79570;SDS011;69034;49.444;7.758;2024-02-14T08:20:59;3.15;;;1.20;;
79570;SDS011;69034;49.444;7.758;2024-02-14T08:24:59;5.78;;;1.60;;
79570;SDS011;69034;49.444;7.758;2024-02-14T08:29:00;4.43;;;1.50;;
79570;SDS011;69034;49.444;7.758;2024-02-14T08:33:01;2.92;;;1.20;;
79570;SDS011;69034;49.444;7.758;2024-02-14T08:37:01;5.80;;;1.50;;
79570;SDS011;69034;49.444;7.758;2024-02-14T08:41:02;2.97;;;1.45;;
79570;SDS011;69034;49.444;7.758;2024-02-14T08:45:03;2.70;;;1.10;;
79570;SDS011;69034;49.444;7.758;2024-02-14T08:49:04;3.15;;;1.45;;
79570;SDS011;69034;49.444;7.758;2024-02-14T08:53:08;5.97;;;1.73;;
79570;SDS011;69034;49.444;7.758;2024-02-14T08:57:09;2.53;;;1.35;;
79570;SDS011;69034;49.444;7.758;2024-02-14T09:01:10;2.78;;;1.20;;
79570;SDS011;69034;49.444;7.758;2024-02-14T09:05:14;3.17;;;1.70;;
79570;SDS011;69034;49.444;7.758;2024-02-14T09:09:16;5.07;;;1.42;;
79570;SDS011;69034;49.444;7.758;2024-02-14T09:13:19;5.82;;;1.98;;
79570;SDS011;69034;49.444;7.758;2024-02-14T09:17:19;2.42;;;1.15;;
79570;SDS011;69034;49.444;7.758;2024-02-14T09:21:20;3.85;;;1.58;;
79570;SDS011;69034;49.444;7.758;2024-02-14T09:25:21;4.97;;;1.73;;
79570;SDS011;69034;49.444;7.758;2024-02-14T09:29:23;5.15;;;1.77;;
79570;SDS011;69034;49.444;7.758;2024-02-14T09:33:24;6.32;;;1.67;;
79570;SDS011;69034;49.444;7.758;2024-02-14T09:37:24;4.30;;;1.20;;
79570;SDS011;69034;49.444;7.758;2024-02-14T09:41:27;4.22;;;1.17;;
79570;SDS011;69034;49.444;7.758;2024-02-14T09:45:36;6.32;;;1.50;;
79570;SDS011;69034;49.444;7.758;2024-02-14T09:49:40;7.60;;;1.00;;
79570;SDS011;69034;49.444;7.758;2024-02-14T09:53:41;4.00;;;1.48;;
79570;SDS011;69034;49.444;7.758;2024-02-14T09:57:44;6.63;;;2.53;;
79570;SDS011;69034;49.444;7.758;2024-02-14T10:01:46;2.90;;;1.08;;
79570;SDS011;69034;49.444;7.758;2024-02-14T10:05:49;4.75;;;1.50;;
79570;SDS011;69034;49.444;7.758;2024-02-14T10:09:50;2.55;;;1.23;;
79570;SDS011;69034;49.444;7.758;2024-02-14T10:13:50;4.07;;;1.73;;
79570;SDS011;69034;49.444;7.758;2024-02-14T10:17:53;5.18;;;1.40;;
79570;SDS011;69034;49.444;7.758;2024-02-14T10:21:57;3.78;;;1.25;;
79570;SDS011;69034;49.444;7.758;2024-02-14T10:25:58;2.53;;;1.20;;
79570;SDS011;69034;49.444;7.758;2024-02-14T10:29:59;3.85;;;1.73;;
79570;SDS011;69034;49.444;7.758;2024-02-14T10:34:00;6.55;;;1.30;;
79570;SDS011;69034;49.444;7.758;2024-02-14T10:38:01;4.57;;;1.45;;
79570;SDS011;69034;49.444;7.758;2024-02-14T10:42:02;2.95;;;1.40;;
79570;SDS011;69034;49.444;7.758;2024-02-14T10:46:05;7.32;;;2.30;;
79570;SDS011;69034;49.444;7.758;2024-02-14T10:50:12;2.42;;;1.23;;
79570;SDS011;69034;49.444;7.758;2024-02-14T10:54:14;3.38;;;1.20;;
79570;SDS011;69034;49.444;7.758;2024-02-14T10:58:19;5.22;;;1.58;;
79570;SDS011;69034;49.444;7.758;2024-02-14T11:02:20;3.95;;;1.85;;
79570;SDS011;69034;49.444;7.758;2024-02-14T11:06:23;2.97;;;1.48;;
79570;SDS011;69034;49.444;7.758;2024-02-14T11:10:24;3.58;;;1.35;;
79570;SDS011;69034;49.444;7.758;2024-02-14T11:14:31;4.60;;;1.70;;
79570;SDS011;69034;49.444;7.758;2024-02-14T11:18:33;4.40;;;1.05;;
79570;SDS011;69034;49.444;7.758;2024-02-14T11:22:34;5.53;;;1.95;;
79570;SDS011;69034;49.444;7.758;2024-02-14T11:26:51;8.27;;;2.10;;
79570;SDS011;69034;49.444;7.758;2024-02-14T11:30:53;4.18;;;1.35;;
79570;SDS011;69034;49.444;7.758;2024-02-14T11:35:03;3.33;;;1.52;;
79570;SDS011;69034;49.444;7.758;2024-02-14T11:39:06;5.35;;;1.77;;
79570;SDS011;69034;49.444;7.758;2024-02-14T11:47:14;3.95;;;1.40;;
79570;SDS011;69034;49.444;7.758;2024-02-14T11:51:14;3.42;;;1.70;;
79570;SDS011;69034;49.444;7.758;2024-02-14T11:55:17;3.55;;;1.40;;
79570;SDS011;69034;49.444;7.758;2024-02-14T11:59:18;4.45;;;1.90;;
79570;SDS011;69034;49.444;7.758;2024-02-14T12:03:20;1.95;;;0.73;;
79570;SDS011;69034;49.444;7.758;2024-02-14T12:07:25;4.18;;;1.50;;
79570;SDS011;69034;49.444;7.758;2024-02-14T12:11:27;3.20;;;1.40;;
79570;SDS011;69034;49.444;7.758;2024-02-14T12:15:29;4.43;;;1.73;;
79570;SDS011;69034;49.444;7.758;2024-02-14T12:19:29;5.63;;;1.67;;
79570;SDS011;69034;49.444;7.758;2024-02-14T12:23:30;4.70;;;1.58;;
79570;SDS011;69034;49.444;7.758;2024-02-14T12:27:34;4.50;;;1.30;;
79570;SDS011;69034;49.444;7.758;2024-02-14T12:31:35;4.68;;;1.42;;
79570;SDS011;69034;49.444;7.758;2024-02-14T12:35:36;3.42;;;1.35;;
79570;SDS011;69034;49.444;7.758;2024-02-14T12:39:41;3.20;;;1.38;;
79570;SDS011;69034;49.444;7.758;2024-02-14T12:43:42;4.55;;;1.20;;
79570;SDS011;69034;49.444;7.758;2024-02-14T12:47:43;2.97;;;1.42;;
79570;SDS011;69034;49.444;7.758;2024-02-14T12:51:43;2.78;;;1.17;;
79570;SDS011;69034;49.444;7.758;2024-02-14T12:55:44;3.80;;;1.30;;
79570;SDS011;69034;49.444;7.758;2024-02-14T12:59:45;4.63;;;1.20;;
79570;SDS011;69034;49.444;7.758;2024-02-14T13:03:45;3.55;;;0.95;;
79570;SDS011;69034;49.444;7.758;2024-02-14T13:07:46;2.65;;;1.20;;
79570;SDS011;69034;49.444;7.758;2024-02-14T13:11:47;4.72;;;1.80;;
79570;SDS011;69034;49.444;7.758;2024-02-14T13:15:47;3.10;;;0.88;;
79570;SDS011;69034;49.444;7.758;2024-02-14T13:19:48;3.08;;;1.00;;
79570;SDS011;69034;49.444;7.758;2024-02-14T13:23:49;2.70;;;0.90;;
79570;SDS011;69034;49.444;7.758;2024-02-14T13:27:50;3.45;;;1.20;;
79570;SDS011;69034;49.444;7.758;2024-02-14T13:31:50;2.58;;;1.00;;
79570;SDS011;69034;49.444;7.758;2024-02-14T13:35:52;2.70;;;1.10;;
79570;SDS011;69034;49.444;7.758;2024-02-14T13:39:52;2.40;;;1.00;;
79570;SDS011;69034;49.444;7.758;2024-02-14T13:43:53;2.70;;;1.17;;
79570;SDS011;69034;49.444;7.758;2024-02-14T13:48:01;2.60;;;1.20;;
79570;SDS011;69034;49.444;7.758;2024-02-14T13:52:04;2.20;;;1.00;;
79570;SDS011;69034;49.444;7.758;2024-02-14T13:56:05;2.38;;;0.93;;
79570;SDS011;69034;49.444;7.758;2024-02-14T14:00:07;2.60;;;1.10;;
79570;SDS011;69034;49.444;7.758;2024-02-14T14:04:11;1.60;;;0.68;;
79570;SDS011;69034;49.444;7.758;2024-02-14T14:08:12;2.00;;;0.82;;
79570;SDS011;69034;49.444;7.758;2024-02-14T14:12:13;2.40;;;1.02;;
79570;SDS011;69034;49.444;7.758;2024-02-14T14:16:15;3.78;;;1.25;;
79570;SDS011;69034;49.444;7.758;2024-02-14T14:20:15;2.90;;;1.20;;
79570;SDS011;69034;49.444;7.758;2024-02-14T14:24:16;2.72;;;1.20;;
79570;SDS011;69034;49.444;7.758;2024-02-14T14:28:17;2.17;;;0.80;;
79570;SDS011;69034;49.444;7.758;2024-02-14T14:32:20;2.78;;;0.90;;
79570;SDS011;69034;49.444;7.758;2024-02-14T14:36:20;2.30;;;1.17;;
79570;SDS011;69034;49.444;7.758;2024-02-14T14:40:21;3.70;;;1.30;;
79570;SDS011;69034;49.444;7.758;2024-02-14T14:44:21;2.97;;;0.80;;
79570;SDS011;69034;49.444;7.758;2024-02-14T14:48:22;2.70;;;0.90;;
79570;SDS011;69034;49.444;7.758;2024-02-14T14:52:23;2.40;;;1.08;;
79570;SDS011;69034;49.444;7.758;2024-02-14T14:56:23;3.42;;;1.40;;
79570;SDS011;69034;49.444;7.758;2024-02-14T15:00:26;2.72;;;0.95;;
79570;SDS011;69034;49.444;7.758;2024-02-14T15:04:27;2.50;;;1.10;;
79570;SDS011;69034;49.444;7.758;2024-02-14T15:08:28;4.47;;;1.10;;
79570;SDS011;69034;49.444;7.758;2024-02-14T15:12:28;3.35;;;1.05;;
79570;SDS011;69034;49.444;7.758;2024-02-14T15:16:29;2.50;;;1.00;;
79570;SDS011;69034;49.444;7.758;2024-02-14T15:20:30;4.20;;;0.90;;
79570;SDS011;69034;49.444;7.758;2024-02-14T15:24:31;2.00;;;0.80;;
79570;SDS011;69034;49.444;7.758;2024-02-14T15:28:33;3.30;;;1.25;;
79570;SDS011;69034;49.444;7.758;2024-02-14T15:32:40;3.67;;;1.20;;
79570;SDS011;69034;49.444;7.758;2024-02-14T15:36:59;3.70;;;1.42;;
79570;SDS011;69034;49.444;7.758;2024-02-14T15:41:00;2.90;;;1.25;;
79570;SDS011;69034;49.444;7.758;2024-02-14T15:45:03;2.78;;;0.98;;
79570;SDS011;69034;49.444;7.758;2024-02-14T15:49:04;4.35;;;0.90;;
79570;SDS011;69034;49.444;7.758;2024-02-14T15:53:05;5.30;;;1.20;;
79570;SDS011;69034;49.444;7.758;2024-02-14T15:57:06;2.22;;;0.75;;
79570;SDS011;69034;49.444;7.758;2024-02-14T16:01:06;2.40;;;1.05;;
79570;SDS011;69034;49.444;7.758;2024-02-14T16:05:08;3.63;;;1.20;;
79570;SDS011;69034;49.444;7.758;2024-02-14T16:09:11;3.43;;;1.30;;
79570;SDS011;69034;49.444;7.758;2024-02-14T16:13:12;2.67;;;1.20;;
79570;SDS011;69034;49.444;7.758;2024-02-14T16:17:12;2.20;;;1.00;;
79570;SDS011;69034;49.444;7.758;2024-02-14T16:21:13;3.53;;;1.60;;
79570;SDS011;69034;49.444;7.758;2024-02-14T16:25:14;2.90;;;1.13;;
79570;SDS011;69034;49.444;7.758;2024-02-14T16:29:14;3.83;;;1.40;;
79570;SDS011;69034;49.444;7.758;2024-02-14T16:33:15;2.15;;;0.90;;
79570;SDS011;69034;49.444;7.758;2024-02-14T16:37:16;3.67;;;1.42;;
79570;SDS011;69034;49.444;7.758;2024-02-14T16:41:19;2.90;;;1.30;;
79570;SDS011;69034;49.444;7.758;2024-02-14T16:45:22;2.17;;;1.08;;
79570;SDS011;69034;49.444;7.758;2024-02-14T16:49:23;1.95;;;1.00;;
79570;SDS011;69034;49.444;7.758;2024-02-14T16:53:23;4.15;;;1.08;;
79570;SDS011;69034;49.444;7.758;2024-02-14T16:57:24;3.72;;;1.60;;
79570;SDS011;69034;49.444;7.758;2024-02-14T17:01:25;3.80;;;1.15;;
79570;SDS011;69034;49.444;7.758;2024-02-14T17:05:25;4.20;;;1.63;;
79570;SDS011;69034;49.444;7.758;2024-02-14T17:09:26;3.65;;;1.42;;
79570;SDS011;69034;49.444;7.758;2024-02-14T17:13:27;2.28;;;1.15;;
79570;SDS011;69034;49.444;7.758;2024-02-14T17:17:28;4.38;;;1.77;;
79570;SDS011;69034;49.444;7.758;2024-02-14T17:21:28;3.65;;;1.70;;
79570;SDS011;69034;49.444;7.758;2024-02-14T17:25:29;4.07;;;1.95;;
79570;SDS011;69034;49.444;7.758;2024-02-14T17:29:29;3.45;;;1.65;;
79570;SDS011;69034;49.444;7.758;2024-02-14T17:33:31;3.40;;;1.42;;
79570;SDS011;69034;49.444;7.758;2024-02-14T17:37:32;2.33;;;1.02;;
79570;SDS011;69034;49.444;7.758;2024-02-14T17:41:35;4.28;;;1.55;;
79570;SDS011;69034;49.444;7.758;2024-02-14T17:45:36;6.63;;;2.08;;
79570;SDS011;69034;49.444;7.758;2024-02-14T17:49:36;5.07;;;1.88;;
79570;SDS011;69034;49.444;7.758;2024-02-14T17:53:37;4.32;;;1.35;;
79570;SDS011;69034;49.444;7.758;2024-02-14T17:57:37;2.80;;;1.25;;
79570;SDS011;69034;49.444;7.758;2024-02-14T18:01:38;2.60;;;1.13;;
79570;SDS011;69034;49.444;7.758;2024-02-14T18:05:39;2.95;;;1.10;;
79570;SDS011;69034;49.444;7.758;2024-02-14T18:09:43;3.42;;;1.10;;
79570;SDS011;69034;49.444;7.758;2024-02-14T18:13:44;6.53;;;1.55;;
79570;SDS011;69034;49.444;7.758;2024-02-14T18:17:46;3.20;;;1.10;;
79570;SDS011;69034;49.444;7.758;2024-02-14T18:21:48;2.90;;;1.33;;
79570;SDS011;69034;49.444;7.758;2024-02-14T18:25:48;1.42;;;0.75;;
79570;SDS011;69034;49.444;7.758;2024-02-14T18:29:49;2.65;;;1.33;;
79570;SDS011;69034;49.444;7.758;2024-02-14T18:33:50;2.95;;;1.30;;
79570;SDS011;69034;49.444;7.758;2024-02-14T18:37:50;8.15;;;4.18;;
79570;SDS011;69034;49.444;7.758;2024-02-14T18:41:51;2.83;;;1.30;;
79570;SDS011;69034;49.444;7.758;2024-02-14T18:45:51;3.85;;;1.38;;
79570;SDS011;69034;49.444;7.758;2024-02-14T18:49:53;3.75;;;1.58;;
79570;SDS011;69034;49.444;7.758;2024-02-14T18:53:53;6.97;;;2.58;;
79570;SDS011;69034;49.444;7.758;2024-02-14T18:57:54;7.47;;;1.70;;
79570;SDS011;69034;49.444;7.758;2024-02-14T19:01:55;3.85;;;1.60;;
79570;SDS011;69034;49.444;7.758;2024-02-14T19:05:55;4.20;;;2.38;;
79570;SDS011;69034;49.444;7.758;2024-02-14T19:09:56;4.90;;;3.03;;
79570;SDS011;69034;49.444;7.758;2024-02-14T19:13:57;6.50;;;2.38;;
79570;SDS011;69034;49.444;7.758;2024-02-14T19:18:17;7.57;;;3.95;;
79570;SDS011;69034;49.444;7.758;2024-02-14T19:22:18;31.88;;;15.82;;
79570;SDS011;69034;49.444;7.758;2024-02-14T19:26:18;17.08;;;5.47;;
79570;SDS011;69034;49.444;7.758;2024-02-14T19:30:20;31.38;;;10.38;;
79570;SDS011;69034;49.444;7.758;2024-02-14T19:34:21;18.65;;;6.18;;
79570;SDS011;69034;49.444;7.758;2024-02-14T19:38:23;19.40;;;7.95;;
79570;SDS011;69034;49.444;7.758;2024-02-14T19:42:23;14.10;;;5.85;;
79570;SDS011;69034;49.444;7.758;2024-02-14T19:46:24;13.70;;;4.30;;
79570;SDS011;69034;49.444;7.758;2024-02-14T19:50:25;15.85;;;4.97;;
79570;SDS011;69034;49.444;7.758;2024-02-14T19:54:25;12.05;;;5.40;;
79570;SDS011;69034;49.444;7.758;2024-02-14T19:58:27;9.23;;;4.18;;
79570;SDS011;69034;49.444;7.758;2024-02-14T20:02:28;10.82;;;3.90;;
79570;SDS011;69034;49.444;7.758;2024-02-14T20:06:29;9.63;;;3.85;;
79570;SDS011;69034;49.444;7.758;2024-02-14T20:10:31;8.90;;;3.65;;
79570;SDS011;69034;49.444;7.758;2024-02-14T20:14:31;7.93;;;3.40;;
79570;SDS011;69034;49.444;7.758;2024-02-14T20:18:33;9.63;;;3.63;;
79570;SDS011;69034;49.444;7.758;2024-02-14T20:22:33;7.07;;;3.00;;
79570;SDS011;69034;49.444;7.758;2024-02-14T20:26:34;14.10;;;4.15;;
79570;SDS011;69034;49.444;7.758;2024-02-14T20:30:35;10.13;;;3.28;;
79570;SDS011;69034;49.444;7.758;2024-02-14T20:34:36;10.10;;;2.90;;
79570;SDS011;69034;49.444;7.758;2024-02-14T20:38:37;8.90;;;2.35;;
79570;SDS011;69034;49.444;7.758;2024-02-14T20:42:39;8.10;;;2.33;;
79570;SDS011;69034;49.444;7.758;2024-02-14T20:46:40;8.02;;;2.63;;
79570;SDS011;69034;49.444;7.758;2024-02-14T20:50:49;4.70;;;2.03;;
79570;SDS011;69034;49.444;7.758;2024-02-14T20:54:54;3.67;;;1.63;;
79570;SDS011;69034;49.444;7.758;2024-02-14T20:59:14;9.32;;;2.30;;
79570;SDS011;69034;49.444;7.758;2024-02-14T21:03:15;3.55;;;1.75;;
79570;SDS011;69034;49.444;7.758;2024-02-14T21:07:18;5.40;;;1.88;;
79570;SDS011;69034;49.444;7.758;2024-02-14T21:11:18;4.15;;;1.85;;
79570;SDS011;69034;49.444;7.758;2024-02-14T21:15:19;3.83;;;1.60;;
79570;SDS011;69034;49.444;7.758;2024-02-14T21:19:19;3.58;;;1.73;;
79570;SDS011;69034;49.444;7.758;2024-02-14T21:23:20;4.88;;;1.90;;
79570;SDS011;69034;49.444;7.758;2024-02-14T21:27:22;4.60;;;1.50;;
79570;SDS011;69034;49.444;7.758;2024-02-14T21:31:22;5.72;;;2.05;;
79570;SDS011;69034;49.444;7.758;2024-02-14T21:35:26;4.80;;;1.65;;
79570;SDS011;69034;49.444;7.758;2024-02-14T21:39:27;5.03;;;1.17;;
79570;SDS011;69034;49.444;7.758;2024-02-14T21:43:28;7.15;;;1.98;;
79570;SDS011;69034;49.444;7.758;2024-02-14T21:47:29;5.50;;;1.90;;
79570;SDS011;69034;49.444;7.758;2024-02-14T21:51:29;3.17;;;1.60;;
79570;SDS011;69034;49.444;7.758;2024-02-14T21:55:32;3.85;;;1.67;;
79570;SDS011;69034;49.444;7.758;2024-02-14T21:59:33;4.45;;;1.38;;
79570;SDS011;69034;49.444;7.758;2024-02-14T22:03:34;7.57;;;2.33;;
79570;SDS011;69034;49.444;7.758;2024-02-14T22:07:34;6.85;;;1.38;;
79570;SDS011;69034;49.444;7.758;2024-02-14T22:11:36;4.13;;;1.60;;
79570;SDS011;69034;49.444;7.758;2024-02-14T22:15:37;6.20;;;1.73;;
79570;SDS011;69034;49.444;7.758;2024-02-14T22:19:38;6.47;;;1.38;;
79570;SDS011;69034;49.444;7.758;2024-02-14T22:23:43;4.20;;;1.45;;
79570;SDS011;69034;49.444;7.758;2024-02-14T22:27:44;3.53;;;1.33;;
79570;SDS011;69034;49.444;7.758;2024-02-14T22:31:45;4.53;;;1.35;;
79570;SDS011;69034;49.444;7.758;2024-02-14T22:35:46;3.78;;;1.42;;
79570;SDS011;69034;49.444;7.758;2024-02-14T22:39:48;6.95;;;1.77;;
79570;SDS011;69034;49.444;7.758;2024-02-14T22:43:49;4.47;;;1.30;;
79570;SDS011;69034;49.444;7.758;2024-02-14T22:47:52;5.25;;;1.58;;
79570;SDS011;69034;49.444;7.758;2024-02-14T22:51:53;3.13;;;1.67;;
79570;SDS011;69034;49.444;7.758;2024-02-14T22:55:54;3.63;;;1.65;;
79570;SDS011;69034;49.444;7.758;2024-02-14T22:59:56;9.07;;;1.95;;
79570;SDS011;69034;49.444;7.758;2024-02-14T23:03:56;3.05;;;1.35;;
79570;SDS011;69034;49.444;7.758;2024-02-14T23:07:57;4.15;;;1.45;;
79570;SDS011;69034;49.444;7.758;2024-02-14T23:11:58;2.35;;;1.00;;
79570;SDS011;69034;49.444;7.758;2024-02-14T23:16:01;4.75;;;1.30;;
79570;SDS011;69034;49.444;7.758;2024-02-14T23:20:03;5.32;;;2.20;;
79570;SDS011;69034;49.444;7.758;2024-02-14T23:24:06;3.22;;;1.42;;
79570;SDS011;69034;49.444;7.758;2024-02-14T23:28:07;5.15;;;1.85;;
79570;SDS011;69034;49.444;7.758;2024-02-14T23:32:07;3.55;;;1.40;;
79570;SDS011;69034;49.444;7.758;2024-02-14T23:36:08;4.57;;;1.38;;
79570;SDS011;69034;49.444;7.758;2024-02-14T23:40:10;3.10;;;1.30;;
79570;SDS011;69034;49.444;7.758;2024-02-14T23:44:12;3.33;;;1.48;;
79570;SDS011;69034;49.444;7.758;2024-02-14T23:48:13;4.30;;;1.67;;
79570;SDS011;69034;49.444;7.758;2024-02-14T23:52:14;2.83;;;1.13;;
79570;SDS011;69034;49.444;7.758;2024-02-14T23:56:14;3.92;;;1.40;;
